createdAt,value
2022-08-02T00:00:36.981Z,93.27
2022-08-02T00:01:37.035Z,92.77
2022-08-02T00:02:36.982Z,92.57
2022-08-02T00:03:36.983Z,92.67
2022-08-02T00:04:36.976Z,93.07
2022-08-02T00:05:36.977Z,93.23
2022-08-02T00:06:36.972Z,92.72
2022-08-02T00:07:41.016Z,92.22
2022-08-02T00:08:36.968Z,91.71
2022-08-02T00:09:36.966Z,92.32
2022-08-02T00:10:36.965Z,92.52
2022-08-02T00:11:36.967Z,92.63
2022-08-02T00:12:36.969Z,92.63
2022-08-02T00:13:36.965Z,92.22
2022-08-02T00:14:36.966Z,92.22
2022-08-02T00:15:36.965Z,92.83
2022-08-02T00:16:38.327Z,92.52
2022-08-02T00:17:36.955Z,92.72
2022-08-02T00:18:36.952Z,92.63
2022-08-02T00:19:36.954Z,92.93
2022-08-02T00:20:36.954Z,92.83
2022-08-02T00:21:36.950Z,91.97
2022-08-02T00:22:36.947Z,91.16
2022-08-02T00:24:03.300Z,91.00
2022-08-02T00:24:36.957Z,90.40
2022-08-02T00:25:36.944Z,90.80
2022-08-02T00:26:36.941Z,90.91
2022-08-02T00:27:36.945Z,91.20
2022-08-02T00:28:36.939Z,91.00
2022-08-02T00:29:42.575Z,90.60
2022-08-02T00:31:36.933Z,91.05
2022-08-02T00:32:36.933Z,91.35
2022-08-02T00:34:27.246Z,91.25
2022-08-02T00:34:38.045Z,92.16
2022-08-02T00:35:40.591Z,92.26
2022-08-02T00:36:36.933Z,91.55
2022-08-02T00:37:36.923Z,91.46
2022-08-02T00:38:36.925Z,90.54
2022-08-02T00:39:36.920Z,90.95
2022-08-02T00:40:36.919Z,91.09
2022-08-02T00:41:36.915Z,92.31
2022-08-02T00:42:36.919Z,92.41
2022-08-02T00:43:36.919Z,92.71
2022-08-02T00:44:36.921Z,92.61
2022-08-02T00:46:02.837Z,92.61
2022-08-02T00:46:36.909Z,93.22
2022-08-02T00:47:36.912Z,93.73
2022-08-02T00:48:36.905Z,94.23
2022-08-02T00:49:36.945Z,93.93
2022-08-02T00:50:36.901Z,94.23
2022-08-02T00:51:36.901Z,94.64
2022-08-02T00:52:36.906Z,95.04
2022-08-02T00:53:36.895Z,94.84
2022-08-02T00:54:36.897Z,94.54
2022-08-02T00:55:36.897Z,94.94
2022-08-02T00:56:36.893Z,94.94
2022-08-02T00:57:36.889Z,95.35
2022-08-02T00:58:36.890Z,95.40
2022-08-02T00:59:36.892Z,94.90
2022-08-02T01:00:36.886Z,94.59
2022-08-02T01:01:36.925Z,93.68
2022-08-02T01:02:36.882Z,92.67
2022-08-02T01:03:36.879Z,92.61
2022-08-02T01:04:36.877Z,92.71
2022-08-02T01:06:10.071Z,92.82
2022-08-02T01:06:36.877Z,93.32
2022-08-02T01:07:36.874Z,93.73
2022-08-02T01:08:36.872Z,94.13
2022-08-02T01:09:36.870Z,94.39
2022-08-02T01:10:36.870Z,94.39
2022-08-02T01:11:36.869Z,94.13
2022-08-02T01:12:36.863Z,94.29
2022-08-02T01:13:36.876Z,94.13
2022-08-02T01:14:36.873Z,93.22
2022-08-02T01:15:36.864Z,93.62
2022-08-02T01:16:36.858Z,93.62
2022-08-02T01:17:36.854Z,93.52
2022-08-02T01:18:36.858Z,93.62
2022-08-02T01:19:36.852Z,93.73
2022-08-02T01:20:36.849Z,94.43
2022-08-02T01:21:36.853Z,94.34
2022-08-02T01:23:00.023Z,94.48
2022-08-02T01:23:36.844Z,94.54
2022-08-02T01:24:36.846Z,94.54
2022-08-02T01:25:36.842Z,93.67
2022-08-02T01:26:36.844Z,93.26
2022-08-02T01:27:36.841Z,93.37
2022-08-02T01:28:36.841Z,94.58
2022-08-02T01:29:36.835Z,94.68
2022-08-02T01:30:36.835Z,94.27
2022-08-02T01:31:36.834Z,94.58
2022-08-02T01:32:36.833Z,94.68
2022-08-02T01:33:36.829Z,94.23
2022-08-02T01:34:36.827Z,94.07
2022-08-02T01:35:50.464Z,94.23
2022-08-02T01:36:36.829Z,94.07
2022-08-02T01:37:36.826Z,94.54
2022-08-02T01:38:36.819Z,94.89
2022-08-02T01:39:36.817Z,94.27
2022-08-02T01:40:36.819Z,94.43
2022-08-02T01:41:36.814Z,94.23
2022-08-02T01:42:36.822Z,94.48
2022-08-02T01:43:36.810Z,95.14
2022-08-02T01:44:36.806Z,95.04
2022-08-02T01:45:36.811Z,94.64
2022-08-02T01:46:36.810Z,94.43
2022-08-02T01:47:36.807Z,94.68
2022-08-02T01:48:36.801Z,94.48
2022-08-02T01:49:36.848Z,94.18
2022-08-02T01:50:36.801Z,93.87
2022-08-02T01:51:36.795Z,94.68
2022-08-02T01:52:36.794Z,94.98
2022-08-02T01:53:36.793Z,94.78
2022-08-02T01:54:36.790Z,95.09
2022-08-02T01:55:58.203Z,95.59
2022-08-02T01:56:36.787Z,95.59
2022-08-02T01:57:39.252Z,95.50
2022-08-02T01:58:36.782Z,95.04
2022-08-02T01:59:36.797Z,95.04
2022-08-02T02:00:36.786Z,95.09
2022-08-02T02:01:36.836Z,94.54
2022-08-02T02:02:36.780Z,93.87
2022-08-02T02:03:41.653Z,93.67
2022-08-02T02:04:36.772Z,93.37
2022-08-02T02:05:36.770Z,93.57
2022-08-02T02:06:36.772Z,93.97
2022-08-02T02:07:36.766Z,94.68
2022-08-02T02:08:36.765Z,94.89
2022-08-02T02:09:36.760Z,94.89
2022-08-02T02:10:36.759Z,95.50
2022-08-02T02:12:12.001Z,95.59
2022-08-02T02:12:36.758Z,95.19
2022-08-02T02:13:36.752Z,94.98
2022-08-02T02:14:36.754Z,94.98
2022-08-02T02:15:36.750Z,95.29
2022-08-02T02:16:36.748Z,95.19
2022-08-02T02:18:10.466Z,94.78
2022-08-02T02:18:36.745Z,94.98
2022-08-02T02:20:55.984Z,94.78
2022-08-02T02:21:36.746Z,94.58
2022-08-02T02:22:36.737Z,93.97
2022-08-02T02:23:36.739Z,93.91
2022-08-02T02:24:36.820Z,93.10
2022-08-02T02:25:41.814Z,92.80
2022-08-02T02:26:36.728Z,92.80
2022-08-02T02:27:37.131Z,92.70
2022-08-02T02:28:36.725Z,93.21
2022-08-02T02:29:36.725Z,93.45
2022-08-02T02:30:36.724Z,93.21
2022-08-02T02:31:36.723Z,93.25
2022-08-02T02:32:36.720Z,93.25
2022-08-02T02:33:36.718Z,93.35
2022-08-02T02:34:36.715Z,93.76
2022-08-02T02:35:36.715Z,94.67
2022-08-02T02:36:36.711Z,94.67
2022-08-02T02:37:36.715Z,93.96
2022-08-02T02:38:36.959Z,94.57
2022-08-02T02:39:36.706Z,94.87
2022-08-02T02:40:36.701Z,94.77
2022-08-02T02:41:36.702Z,94.98
2022-08-02T02:42:36.699Z,95.07
2022-08-02T02:43:36.699Z,94.77
2022-08-02T02:44:36.694Z,94.77
2022-08-02T02:45:36.702Z,94.77
2022-08-02T02:46:36.693Z,94.17
2022-08-02T02:47:40.410Z,94.82
2022-08-02T02:48:36.687Z,94.41
2022-08-02T02:49:36.787Z,94.21
2022-08-02T02:50:36.691Z,93.40
2022-08-02T02:51:36.684Z,94.10
2022-08-02T02:52:36.679Z,93.19
2022-08-02T02:54:30.113Z,93.29
2022-08-02T02:54:36.679Z,93.64
2022-08-02T02:55:36.674Z,94.45
2022-08-02T02:56:36.728Z,94.00
2022-08-02T02:57:36.670Z,94.31
2022-08-02T02:58:36.674Z,94.82
2022-08-02T02:59:43.000Z,95.02
2022-08-02T03:00:36.665Z,95.02
2022-08-02T03:01:57.276Z,95.02
2022-08-02T03:02:36.660Z,94.41
2022-08-02T03:03:36.667Z,94.61
2022-08-02T03:04:57.571Z,94.41
2022-08-02T03:05:36.653Z,94.31
2022-08-02T03:06:36.650Z,94.31
2022-08-02T03:07:36.649Z,94.10
2022-08-02T03:08:36.648Z,93.95
2022-08-02T03:09:36.645Z,93.19
2022-08-02T03:10:36.643Z,93.24
2022-08-02T03:11:36.644Z,93.33
2022-08-02T03:12:36.638Z,93.84
2022-08-02T03:13:37.569Z,93.95
2022-08-02T03:14:36.632Z,93.54
2022-08-02T03:15:36.633Z,93.54
2022-08-02T03:16:36.628Z,93.44
2022-08-02T03:17:36.633Z,94.56
2022-08-02T03:18:36.633Z,94.66
2022-08-02T03:19:36.628Z,93.74
2022-08-02T03:20:36.622Z,94.70
2022-08-02T03:21:36.627Z,94.29
2022-08-02T03:22:36.621Z,94.50
2022-08-02T03:23:36.622Z,94.66
2022-08-02T03:24:36.612Z,94.90
2022-08-02T03:25:36.618Z,94.96
2022-08-02T03:26:36.607Z,95.17
2022-08-02T03:27:36.608Z,95.26
2022-08-02T03:28:36.609Z,95.57
2022-08-02T03:29:36.617Z,95.06
2022-08-02T03:30:37.055Z,95.37
2022-08-02T03:31:36.598Z,95.57
2022-08-02T03:32:36.596Z,95.57
2022-08-02T03:33:36.596Z,95.78
2022-08-02T03:34:36.594Z,96.18
2022-08-02T03:35:36.595Z,95.26
2022-08-02T03:36:36.588Z,94.66
2022-08-02T03:37:36.584Z,94.25
2022-08-02T03:38:36.582Z,93.74
2022-08-02T03:39:36.580Z,93.68
2022-08-02T03:40:36.582Z,93.54
2022-08-02T03:41:36.577Z,93.28
2022-08-02T03:42:36.572Z,93.48
2022-08-02T03:43:36.573Z,93.79
2022-08-02T03:44:36.568Z,94.35
2022-08-02T03:45:36.566Z,95.06
2022-08-02T03:46:36.564Z,95.01
2022-08-02T03:47:36.565Z,95.21
2022-08-02T03:48:36.558Z,95.57
2022-08-02T03:49:36.626Z,95.06
2022-08-02T03:50:36.557Z,94.09
2022-08-02T03:51:36.555Z,94.45
2022-08-02T03:52:36.557Z,94.35
2022-08-02T03:53:36.551Z,94.25
2022-08-02T03:54:45.311Z,94.25
2022-08-02T03:55:36.591Z,94.25
2022-08-02T03:56:36.549Z,94.45
2022-08-02T03:57:36.541Z,94.66
2022-08-02T03:58:36.541Z,94.66
2022-08-02T03:59:36.539Z,94.05
2022-08-02T04:00:36.584Z,94.76
2022-08-02T04:01:36.586Z,94.66
2022-08-02T04:02:36.529Z,94.66
2022-08-02T04:03:36.530Z,94.15
2022-08-02T04:04:36.528Z,93.64
2022-08-02T04:05:36.529Z,93.33
2022-08-02T04:06:39.858Z,93.74
2022-08-02T04:08:31.774Z,93.64
2022-08-02T04:08:38.418Z,94.45
2022-08-02T04:09:36.523Z,94.35
2022-08-02T04:10:36.513Z,94.96
2022-08-02T04:11:36.509Z,94.66
2022-08-02T04:12:36.505Z,95.01
2022-08-02T04:13:37.202Z,94.66
2022-08-02T04:14:36.847Z,95.17
2022-08-02T04:15:36.506Z,95.57
2022-08-02T04:16:36.526Z,95.57
2022-08-02T04:17:36.495Z,95.57
2022-08-02T04:18:36.493Z,96.08
2022-08-02T04:19:36.511Z,95.47
2022-08-02T04:20:36.495Z,95.37
2022-08-02T04:21:41.454Z,95.06
2022-08-02T04:22:36.483Z,94.96
2022-08-02T04:23:36.483Z,94.56
2022-08-02T04:24:36.481Z,94.96
2022-08-02T04:25:40.258Z,95.31
2022-08-02T04:26:36.475Z,95.37
2022-08-02T04:27:50.363Z,95.37
2022-08-02T04:28:36.468Z,95.41
2022-08-02T04:29:36.469Z,95.41
2022-08-02T04:30:36.466Z,95.41
2022-08-02T04:31:36.470Z,95.62
2022-08-02T04:32:36.461Z,95.26
2022-08-02T04:33:36.460Z,95.26
2022-08-02T04:34:36.458Z,95.37
2022-08-02T04:35:36.454Z,95.21
2022-08-02T04:36:36.458Z,95.26
2022-08-02T04:37:36.457Z,95.26
2022-08-02T04:38:36.600Z,95.72
2022-08-02T04:39:36.447Z,95.87
2022-08-02T04:40:36.449Z,95.98
2022-08-02T04:41:36.439Z,96.38
2022-08-02T04:42:36.437Z,96.99
2022-08-02T04:43:36.443Z,96.59
2022-08-02T04:44:36.434Z,96.79
2022-08-02T04:45:36.434Z,96.59
2022-08-02T04:46:36.465Z,96.79
2022-08-02T04:47:54.318Z,96.79
2022-08-02T04:48:36.533Z,96.59
2022-08-02T04:49:36.484Z,96.69
2022-08-02T04:50:36.425Z,96.69
2022-08-02T04:51:37.903Z,96.95
2022-08-02T04:52:36.417Z,96.54
2022-08-02T04:53:36.418Z,96.64
2022-08-02T04:54:36.424Z,97.35
2022-08-02T04:55:36.409Z,97.09
2022-08-02T04:56:36.419Z,96.84
2022-08-02T04:57:36.408Z,97.56
2022-08-02T04:58:40.295Z,97.45
2022-08-02T04:59:36.401Z,97.45
2022-08-02T05:00:36.475Z,98.07
2022-08-02T05:01:36.395Z,97.51
2022-08-02T05:02:36.401Z,97.71
2022-08-02T05:03:36.389Z,97.71
2022-08-02T05:04:36.392Z,97.71
2022-08-02T05:05:36.390Z,97.92
2022-08-02T05:06:36.383Z,97.81
2022-08-02T05:07:36.387Z,97.81
2022-08-02T05:08:36.379Z,98.02
2022-08-02T05:09:36.379Z,97.71
2022-08-02T05:10:36.374Z,98.28
2022-08-02T05:11:37.376Z,97.87
2022-08-02T05:12:36.368Z,97.92
2022-08-02T05:13:36.383Z,98.33
2022-08-02T05:14:36.366Z,98.54
2022-08-02T05:16:36.462Z,98.69
2022-08-02T05:17:36.356Z,98.84
2022-08-02T05:18:36.357Z,99.10
2022-08-02T05:19:36.354Z,98.18
2022-08-02T05:20:36.353Z,99.05
2022-08-02T05:21:36.500Z,98.95
2022-08-02T05:22:36.358Z,99.05
2022-08-02T05:23:36.345Z,98.95
2022-08-02T05:24:36.344Z,98.34
2022-08-02T05:25:36.339Z,98.65
2022-08-02T05:26:36.497Z,98.70
2022-08-02T05:27:36.334Z,98.39
2022-08-02T05:28:36.334Z,98.19
2022-08-02T05:29:36.331Z,98.29
2022-08-02T05:30:36.332Z,98.50
2022-08-02T05:31:36.336Z,98.19
2022-08-02T05:32:36.326Z,97.94
2022-08-02T05:33:36.324Z,98.19
2022-08-02T05:34:36.324Z,98.14
2022-08-02T05:35:36.329Z,98.05
2022-08-02T05:36:36.320Z,97.85
2022-08-02T05:38:36.978Z,97.94
2022-08-02T05:39:36.315Z,97.64
2022-08-02T05:40:36.309Z,98.05
2022-08-02T05:41:36.307Z,98.20
2022-08-02T05:42:36.304Z,98.10
2022-08-02T05:43:36.306Z,98.10
2022-08-02T05:44:36.300Z,97.90
2022-08-02T05:45:36.300Z,98.00
2022-08-02T05:46:36.300Z,98.00
2022-08-02T05:47:36.298Z,98.20
2022-08-02T05:48:36.293Z,97.75
2022-08-02T05:49:36.393Z,97.65
2022-08-02T05:50:36.293Z,97.85
2022-08-02T05:51:36.287Z,97.96
2022-08-02T05:52:36.284Z,97.85
2022-08-02T05:53:36.296Z,97.85
2022-08-02T05:54:39.318Z,98.01
2022-08-02T05:55:36.281Z,98.05
2022-08-02T05:56:36.310Z,98.01
2022-08-02T05:57:43.355Z,97.91
2022-08-02T05:58:36.294Z,97.91
2022-08-02T05:59:36.278Z,98.11
2022-08-02T06:00:36.289Z,98.01
2022-08-02T06:01:36.317Z,98.01
2022-08-02T06:02:36.271Z,97.80
2022-08-02T06:03:36.265Z,97.71
2022-08-02T06:04:36.264Z,97.66
2022-08-02T06:05:36.267Z,97.66
2022-08-02T06:06:36.260Z,98.16
2022-08-02T06:07:36.262Z,98.16
2022-08-02T06:08:36.256Z,97.66
2022-08-02T06:09:36.255Z,97.76
2022-08-02T06:10:36.256Z,97.76
2022-08-02T06:11:36.252Z,97.56
2022-08-02T06:12:36.249Z,97.66
2022-08-02T06:13:36.251Z,97.66
2022-08-02T06:14:36.245Z,97.76
2022-08-02T06:15:40.651Z,97.81
2022-08-02T06:16:42.222Z,97.71
2022-08-02T06:17:41.887Z,97.81
2022-08-02T06:18:36.238Z,97.81
2022-08-02T06:19:51.082Z,97.91
2022-08-02T06:20:36.235Z,97.81
2022-08-02T06:22:33.662Z,98.02
2022-08-02T06:22:37.156Z,97.81
2022-08-02T06:23:36.231Z,97.81
2022-08-02T06:24:36.229Z,98.02
2022-08-02T06:25:51.028Z,97.81
2022-08-02T06:26:36.227Z,98.02
2022-08-02T06:27:36.229Z,97.51
2022-08-02T06:28:36.223Z,97.51
2022-08-02T06:29:39.003Z,97.31
2022-08-02T06:30:36.221Z,97.41
2022-08-02T06:31:36.223Z,96.76
2022-08-02T06:32:36.219Z,96.30
2022-08-02T06:33:36.218Z,96.30
2022-08-02T06:34:36.213Z,96.30
2022-08-02T06:35:36.230Z,96.80
2022-08-02T06:36:36.211Z,96.80
2022-08-02T06:37:36.265Z,96.66
2022-08-02T06:38:36.666Z,96.15
2022-08-02T06:39:36.211Z,96.86
2022-08-02T06:40:36.209Z,96.25
2022-08-02T06:41:36.205Z,96.25
2022-08-02T06:42:36.202Z,96.45
2022-08-02T06:43:36.204Z,96.21
2022-08-02T06:44:47.804Z,96.21
2022-08-02T06:45:36.201Z,96.71
2022-08-02T06:47:09.696Z,96.61
2022-08-02T06:47:36.200Z,96.21
2022-08-02T06:48:36.194Z,96.71
2022-08-02T06:49:52.243Z,96.71
2022-08-02T06:50:36.194Z,96.16
2022-08-02T06:52:36.194Z,96.36
2022-08-02T06:53:36.191Z,96.47
2022-08-02T06:54:36.187Z,96.06
2022-08-02T06:55:43.530Z,96.16
2022-08-02T06:56:36.188Z,96.22
2022-08-02T06:57:36.185Z,96.12
2022-08-02T06:58:36.180Z,96.01
2022-08-02T06:59:36.180Z,95.92
2022-08-02T07:00:36.180Z,95.72
2022-08-02T07:01:38.563Z,95.81
2022-08-02T07:02:36.177Z,95.31
2022-08-02T07:03:36.175Z,95.17
2022-08-02T07:04:36.172Z,95.27
2022-08-02T07:05:36.177Z,95.17
2022-08-02T07:06:36.170Z,95.37
2022-08-02T07:07:36.172Z,94.96
2022-08-02T07:08:36.167Z,95.07
2022-08-02T07:09:36.168Z,94.76
2022-08-02T07:10:36.166Z,95.02
2022-08-02T07:11:36.164Z,94.32
2022-08-02T07:12:36.161Z,95.42
2022-08-02T07:13:39.727Z,95.12
2022-08-02T07:14:36.160Z,94.87
2022-08-02T07:15:36.162Z,95.12
2022-08-02T07:16:36.157Z,94.78
2022-08-02T07:17:36.156Z,94.87
2022-08-02T07:18:36.157Z,94.37
2022-08-02T07:19:37.920Z,94.37
2022-08-02T07:20:36.166Z,94.17
2022-08-02T07:21:56.677Z,94.07
2022-08-02T07:22:36.152Z,94.43
2022-08-02T07:23:36.151Z,94.63
2022-08-02T07:24:36.149Z,94.57
2022-08-02T07:26:03.375Z,93.82
2022-08-02T07:26:55.198Z,94.02
2022-08-02T07:27:36.147Z,93.93
2022-08-02T07:28:36.145Z,94.23
2022-08-02T07:29:44.971Z,93.62
2022-08-02T07:30:36.149Z,93.73
2022-08-02T07:31:36.145Z,93.78
2022-08-02T07:32:36.148Z,93.88
2022-08-02T07:33:37.470Z,94.08
2022-08-02T07:34:36.140Z,93.18
2022-08-02T07:35:36.144Z,93.28
2022-08-02T07:36:36.137Z,93.28
2022-08-02T07:37:55.567Z,92.63
2022-08-02T07:38:36.335Z,92.03
2022-08-02T07:39:36.138Z,92.03
2022-08-02T07:40:36.134Z,91.93
2022-08-02T07:41:36.136Z,91.52
2022-08-02T07:42:36.137Z,91.72
2022-08-02T07:43:36.132Z,91.72
2022-08-02T07:44:36.130Z,90.78
2022-08-02T07:45:36.297Z,90.58
2022-08-02T07:46:36.128Z,90.68
2022-08-02T07:47:36.128Z,90.48
2022-08-02T07:48:36.127Z,90.03
2022-08-02T07:49:36.221Z,90.84
2022-08-02T07:50:36.159Z,90.44
2022-08-02T07:51:36.138Z,90.03
2022-08-02T07:52:36.126Z,90.23
2022-08-02T07:53:49.939Z,90.64
2022-08-02T07:54:36.127Z,89.59
2022-08-02T07:55:40.312Z,88.63
2022-08-02T07:56:36.123Z,88.39
2022-08-02T07:57:36.124Z,88.18
2022-08-02T07:58:36.126Z,88.48
2022-08-02T07:59:36.127Z,88.39
2022-08-02T08:00:36.122Z,88.24
2022-08-02T08:01:36.215Z,88.95
2022-08-02T08:02:36.131Z,87.24
2022-08-02T08:03:36.124Z,87.44
2022-08-02T08:04:36.131Z,88.24
2022-08-02T08:05:36.128Z,87.34
2022-08-02T08:06:36.121Z,87.40
2022-08-02T08:07:36.124Z,86.10
2022-08-02T08:08:36.118Z,86.40
2022-08-02T08:09:36.118Z,85.89
2022-08-02T08:10:36.119Z,85.80
2022-08-02T08:11:36.120Z,86.80
2022-08-02T08:12:36.119Z,86.25
2022-08-02T08:13:36.120Z,85.55
2022-08-02T08:14:36.117Z,85.15
2022-08-02T08:15:36.121Z,85.15
2022-08-02T08:16:36.117Z,84.41
2022-08-02T08:17:36.118Z,84.71
2022-08-02T08:18:36.118Z,84.31
2022-08-02T08:19:51.173Z,84.41
2022-08-02T08:20:36.118Z,84.61
2022-08-02T08:21:36.122Z,85.21
2022-08-02T08:22:36.120Z,85.27
2022-08-02T08:23:36.123Z,84.37
2022-08-02T08:24:36.140Z,84.47
2022-08-02T08:25:39.545Z,84.27
2022-08-02T08:26:36.126Z,84.33
2022-08-02T08:27:36.126Z,85.43
2022-08-02T08:28:36.124Z,85.43
2022-08-02T08:29:36.129Z,84.83
2022-08-02T08:30:36.127Z,84.03
2022-08-02T08:31:36.128Z,83.89
2022-08-02T08:32:36.126Z,83.35
2022-08-02T08:33:36.129Z,83.39
2022-08-02T08:34:36.129Z,83.55
2022-08-02T08:35:36.132Z,82.45
2022-08-02T08:36:36.134Z,83.21
2022-08-02T08:37:36.136Z,82.21
2022-08-02T08:38:36.143Z,80.51
2022-08-02T08:39:36.138Z,81.21
2022-08-02T08:40:36.139Z,81.71
2022-08-02T08:41:36.145Z,82.07
2022-08-02T08:42:36.144Z,81.27
2022-08-02T08:43:36.153Z,80.68
2022-08-02T08:44:36.151Z,79.58
2022-08-02T08:45:36.160Z,81.27
2022-08-02T08:46:36.160Z,80.94
2022-08-02T08:47:36.163Z,78.68
2022-08-02T08:48:36.167Z,78.34
2022-08-02T08:49:36.251Z,79.30
2022-08-02T08:50:36.175Z,79.80
2022-08-02T08:51:36.182Z,76.91
2022-08-02T08:52:36.181Z,77.61
2022-08-02T08:53:36.902Z,76.91
2022-08-02T08:54:36.190Z,77.51
2022-08-02T08:55:36.201Z,77.67
2022-08-02T08:56:36.201Z,77.57
2022-08-02T08:57:36.204Z,78.13
2022-08-02T08:58:36.205Z,78.73
2022-08-02T08:59:39.194Z,78.49
2022-08-02T09:00:36.214Z,77.20
2022-08-02T09:01:50.152Z,75.90
2022-08-02T09:02:36.219Z,74.97
2022-08-02T09:03:36.218Z,75.16
2022-08-02T09:04:36.229Z,74.97
2022-08-02T09:05:36.227Z,75.43
2022-08-02T09:06:36.231Z,70.98
2022-08-02T09:07:36.238Z,73.04
2022-08-02T09:08:36.233Z,74.24
2022-08-02T09:09:36.234Z,73.24
2022-08-02T09:10:36.285Z,70.59
2022-08-02T09:11:36.240Z,73.38
2022-08-02T09:12:36.244Z,73.68
2022-08-02T09:13:45.457Z,73.38
2022-08-02T09:14:36.250Z,73.77
2022-08-02T09:15:36.258Z,76.03
2022-08-02T09:16:36.253Z,75.73
2022-08-02T09:17:36.255Z,75.13
2022-08-02T09:18:36.266Z,73.97
2022-08-02T09:19:36.257Z,74.27
2022-08-02T09:20:36.268Z,75.27
2022-08-02T09:21:36.262Z,75.27
2022-08-02T09:22:36.276Z,74.57
2022-08-02T09:23:36.270Z,75.87
2022-08-02T09:24:36.280Z,76.06
2022-08-02T09:25:36.268Z,76.00
2022-08-02T09:26:36.274Z,76.10
2022-08-02T09:27:36.278Z,74.71
2022-08-02T09:28:36.276Z,75.64
2022-08-02T09:29:48.639Z,76.04
2022-08-02T09:30:36.280Z,75.87
2022-08-02T09:31:36.277Z,78.37
2022-08-02T09:32:36.283Z,79.27
2022-08-02T09:33:36.282Z,79.06
2022-08-02T09:34:36.286Z,78.80
2022-08-02T09:36:05.235Z,77.61
2022-08-02T09:36:36.288Z,75.01
2022-08-02T09:37:36.290Z,74.95
2022-08-02T09:38:36.443Z,75.45
2022-08-02T09:39:36.293Z,75.25
2022-08-02T09:40:36.294Z,77.44
2022-08-02T09:41:36.303Z,76.45
2022-08-02T09:42:36.294Z,75.59
2022-08-02T09:43:36.295Z,76.65
2022-08-02T09:44:36.314Z,77.18
2022-08-02T09:45:36.299Z,77.04
2022-08-02T09:46:36.315Z,76.58
2022-08-02T09:47:37.213Z,77.78
2022-08-02T09:48:36.302Z,77.88
2022-08-02T09:49:36.387Z,77.51
2022-08-02T09:50:36.311Z,78.98
2022-08-02T09:51:36.307Z,81.87
2022-08-02T09:52:37.447Z,81.87
2022-08-02T09:53:36.306Z,83.37
2022-08-02T09:54:36.310Z,81.77
2022-08-02T09:55:36.309Z,80.51
2022-08-02T09:56:36.315Z,80.41
2022-08-02T09:57:36.310Z,77.62
2022-08-02T09:58:36.319Z,80.21
2022-08-02T09:59:36.312Z,82.11
2022-08-02T10:00:51.828Z,78.52
2022-08-02T10:01:37.549Z,77.72
2022-08-02T10:02:36.365Z,77.68
2022-08-02T10:03:37.241Z,81.77
2022-08-02T10:04:53.362Z,81.18
2022-08-02T10:05:42.785Z,80.58
2022-08-02T10:06:36.321Z,79.68
2022-08-02T10:07:36.322Z,81.37
2022-08-02T10:08:36.323Z,78.08
2022-08-02T10:09:40.173Z,78.28
2022-08-02T10:10:36.326Z,81.77
2022-08-02T10:11:36.325Z,81.98
2022-08-02T10:12:36.324Z,80.38
2022-08-02T10:13:36.326Z,79.48
2022-08-02T10:14:36.330Z,80.27
2022-08-02T10:15:36.329Z,82.14
2022-08-02T10:16:36.331Z,78.58
2022-08-02T10:17:36.328Z,79.38
2022-08-02T10:18:39.493Z,78.28
2022-08-02T10:20:03.207Z,78.14
2022-08-02T10:20:36.339Z,75.55
2022-08-02T10:21:36.333Z,77.44
2022-08-02T10:22:36.339Z,77.51
2022-08-02T10:23:36.338Z,79.80
2022-08-02T10:24:36.340Z,80.10
2022-08-02T10:25:36.343Z,78.30
2022-08-02T10:26:36.341Z,77.84
2022-08-02T10:27:55.499Z,79.40
2022-08-02T10:28:36.345Z,78.84
2022-08-02T10:29:53.515Z,79.94
2022-08-02T10:30:36.340Z,79.84
2022-08-02T10:31:36.343Z,80.14
2022-08-02T10:32:36.346Z,80.14
2022-08-02T10:33:36.360Z,80.34
2022-08-02T10:34:36.347Z,79.34
2022-08-02T10:35:36.345Z,78.84
2022-08-02T10:36:36.351Z,78.74
2022-08-02T10:37:36.352Z,79.54
2022-08-02T10:38:36.500Z,74.85
2022-08-02T10:39:36.348Z,76.04
2022-08-02T10:40:36.350Z,77.84
2022-08-02T10:41:36.350Z,75.45
2022-08-02T10:42:36.353Z,76.34
2022-08-02T10:43:36.375Z,77.61
2022-08-02T10:44:36.357Z,76.91
2022-08-02T10:45:36.353Z,78.64
2022-08-02T10:46:36.361Z,78.80
2022-08-02T10:47:36.358Z,76.91
2022-08-02T10:48:36.358Z,76.45
2022-08-02T10:49:39.749Z,74.41
2022-08-02T10:50:36.359Z,78.54
2022-08-02T10:51:38.514Z,77.70
2022-08-02T10:52:36.362Z,77.91
2022-08-02T10:53:36.362Z,77.40
2022-08-02T10:54:36.378Z,78.04
2022-08-02T10:55:36.363Z,76.91
2022-08-02T10:56:36.366Z,76.61
2022-08-02T10:57:36.365Z,77.70
2022-08-02T10:58:36.367Z,76.91
2022-08-02T10:59:36.566Z,78.64
2022-08-02T11:00:36.434Z,78.24
2022-08-02T11:01:38.804Z,78.74
2022-08-02T11:02:36.372Z,79.64
2022-08-02T11:03:39.649Z,79.24
2022-08-02T11:04:36.380Z,78.84
2022-08-02T11:05:42.710Z,79.44
2022-08-02T11:06:36.375Z,78.44
2022-08-02T11:07:36.374Z,76.34
2022-08-02T11:08:36.381Z,77.55
2022-08-02T11:09:36.382Z,77.25
2022-08-02T11:10:36.380Z,76.31
2022-08-02T11:11:54.251Z,76.31
2022-08-02T11:12:36.383Z,76.21
2022-08-02T11:13:36.384Z,76.01
2022-08-02T11:14:36.381Z,76.21
2022-08-02T11:15:36.381Z,74.71
2022-08-02T11:16:36.385Z,75.31
2022-08-02T11:17:38.309Z,75.35
2022-08-02T11:18:36.387Z,74.65
2022-08-02T11:19:36.387Z,74.15
2022-08-02T11:20:36.389Z,73.61
2022-08-02T11:21:36.398Z,72.32
2022-08-02T11:22:36.389Z,73.72
2022-08-02T11:23:45.029Z,73.61
2022-08-02T11:24:36.393Z,72.88
2022-08-02T11:26:02.803Z,73.78
2022-08-02T11:26:36.394Z,72.28
2022-08-02T11:27:36.399Z,73.88
2022-08-02T11:28:36.400Z,75.37
2022-08-02T11:29:38.276Z,74.98
2022-08-02T11:30:36.400Z,73.68
2022-08-02T11:31:36.399Z,69.20
2022-08-02T11:32:36.405Z,71.85
2022-08-02T11:33:36.398Z,71.25
2022-08-02T11:34:38.205Z,71.62
2022-08-02T11:35:36.405Z,70.32
2022-08-02T11:36:36.403Z,71.12
2022-08-02T11:37:36.416Z,69.79
2022-08-02T11:38:36.602Z,70.98
2022-08-02T11:39:36.404Z,68.90
2022-08-02T11:40:36.406Z,69.59
2022-08-02T11:41:46.839Z,70.98
2022-08-02T11:42:36.416Z,71.69
2022-08-02T11:43:36.464Z,68.70
2022-08-02T11:44:36.405Z,71.15
2022-08-02T11:45:36.409Z,69.85
2022-08-02T11:46:36.410Z,69.03
2022-08-02T11:47:36.410Z,67.93
2022-08-02T11:48:36.409Z,70.12
2022-08-02T11:49:36.452Z,70.42
2022-08-02T11:50:36.414Z,69.92
2022-08-02T11:51:36.413Z,70.82
2022-08-02T11:52:36.415Z,67.74
2022-08-02T11:53:36.413Z,67.74
2022-08-02T11:54:36.420Z,66.44
2022-08-02T11:55:36.418Z,68.83
2022-08-02T11:56:36.434Z,70.12
2022-08-02T11:58:03.461Z,68.13
2022-08-02T11:58:36.427Z,69.53
2022-08-02T11:59:36.426Z,68.23
2022-08-02T12:00:36.424Z,69.62
2022-08-02T12:01:44.875Z,69.43
2022-08-02T12:02:36.425Z,68.73
2022-08-02T12:03:36.514Z,70.62
2022-08-02T12:04:36.431Z,71.45
2022-08-02T12:06:04.989Z,70.85
2022-08-02T12:06:36.433Z,71.84
2022-08-02T12:07:36.618Z,71.84
2022-08-02T12:08:36.433Z,70.39
2022-08-02T12:09:40.734Z,71.19
2022-08-02T12:10:36.443Z,69.69
2022-08-02T12:11:39.042Z,71.39
2022-08-02T12:12:36.438Z,70.95
2022-08-02T12:13:36.441Z,70.95
2022-08-02T12:14:36.455Z,70.92
2022-08-02T12:15:36.447Z,68.93
2022-08-02T12:16:36.446Z,69.62
2022-08-02T12:17:36.443Z,69.73
2022-08-02T12:18:36.450Z,70.52
2022-08-02T12:19:36.443Z,71.01
2022-08-02T12:20:36.452Z,69.92
2022-08-02T12:21:36.448Z,71.31
2022-08-02T12:22:40.106Z,70.82
2022-08-02T12:23:36.450Z,69.03
2022-08-02T12:24:36.457Z,71.91
2022-08-02T12:25:36.453Z,70.22
2022-08-02T12:26:36.460Z,70.42
2022-08-02T12:27:36.458Z,72.01
2022-08-02T12:28:36.453Z,72.71
2022-08-02T12:29:57.904Z,71.01
2022-08-02T12:30:36.461Z,70.42
2022-08-02T12:31:36.459Z,70.12
2022-08-02T12:32:36.462Z,67.24
2022-08-02T12:33:39.374Z,69.03
2022-08-02T12:34:36.465Z,70.48
2022-08-02T12:35:36.468Z,69.89
2022-08-02T12:36:36.464Z,68.60
2022-08-02T12:37:36.464Z,67.90
2022-08-02T12:38:36.720Z,71.18
2022-08-02T12:39:36.468Z,68.99
2022-08-02T12:40:36.471Z,70.19
2022-08-02T12:41:36.470Z,67.90
2022-08-02T12:42:36.472Z,68.99
2022-08-02T12:43:36.474Z,70.39
2022-08-02T12:44:36.472Z,70.92
2022-08-02T12:45:40.100Z,68.13
2022-08-02T12:46:41.832Z,70.62
2022-08-02T12:47:36.477Z,71.42
2022-08-02T12:48:37.700Z,69.53
2022-08-02T12:49:36.538Z,70.32
2022-08-02T12:50:36.483Z,69.23
2022-08-02T12:51:56.689Z,69.23
2022-08-02T12:52:36.486Z,68.20
2022-08-02T12:53:36.486Z,68.33
2022-08-02T12:54:36.490Z,67.74
2022-08-02T12:55:59.189Z,71.31
2022-08-02T12:56:36.525Z,69.82
2022-08-02T12:57:40.659Z,71.72